<?xml version="1.0" encoding="UTF-8" standalone="no" ?>
<gpx xmlns="http://www.topografix.com/GPX/1/1" xmlns:xsi="http://www.w3.org/2001/XMLSchema-instance" xsi:schemaLocation="http://www.topografix.com/GPX/1/1 http://www.topografix.com/GPX/1/1/gpx.xsd" version="1.1" creator="VisuGPX - https://www.visugpx.com">
  <metadata>
    <name>Un dimanche à lyon</name>
    <desc><![CDATA[Cyclemeter Vélo (Route) 19 avr. 2015 10:38:45]]></desc>
  </metadata>
  <trk>
    <name><![CDATA[Nouveau parcours]]></name>
    <trkseg>
      <trkpt lat="45.80305" lon="4.80931">
        <ele>280.4</ele>
        <time>2015-04-19T08:38:47Z</time>
      </trkpt>
      <trkpt lat="45.80305" lon="4.80931">
        <ele>280.4</ele>
        <time>2015-04-19T08:39:11Z</time>
      </trkpt>
      <trkpt lat="45.80317" lon="4.80899">
        <ele>281</ele>
        <time>2015-04-19T08:39:17Z</time>
      </trkpt>
      <trkpt lat="45.80337" lon="4.80839">
        <ele>281.5</ele>
        <time>2015-04-19T08:39:30Z</time>
      </trkpt>
      <trkpt lat="45.80364" lon="4.80794">
        <ele>282.1</ele>
        <time>2015-04-19T08:39:44Z</time>
      </trkpt>
      <trkpt lat="45.80368" lon="4.80793">
        <ele>282.1</ele>
        <time>2015-04-19T08:39:45Z</time>
      </trkpt>
      <trkpt lat="45.80394" lon="4.80735">
        <ele>282.6</ele>
        <time>2015-04-19T08:39:58Z</time>
      </trkpt>
      <trkpt lat="45.8042" lon="4.80679">
        <ele>283.5</ele>
        <time>2015-04-19T08:40:18Z</time>
      </trkpt>
      <trkpt lat="45.80484" lon="4.80585">
        <ele>289.7</ele>
        <time>2015-04-19T08:40:58Z</time>
      </trkpt>
      <trkpt lat="45.80484" lon="4.80585">
        <ele>289.7</ele>
        <time>2015-04-19T08:41:36Z</time>
      </trkpt>
      <trkpt lat="45.80518" lon="4.80542">
        <ele>293.5</ele>
        <time>2015-04-19T08:41:39Z</time>
      </trkpt>
      <trkpt lat="45.80615" lon="4.80452">
        <ele>304.8</ele>
        <time>2015-04-19T08:42:03Z</time>
      </trkpt>
      <trkpt lat="45.80615" lon="4.80452">
        <ele>304.8</ele>
        <time>2015-04-19T08:43:42Z</time>
      </trkpt>
      <trkpt lat="45.8067" lon="4.80386">
        <ele>311.9</ele>
        <time>2015-04-19T08:43:43Z</time>
      </trkpt>
      <trkpt lat="45.80669" lon="4.80364">
        <ele>312.6</ele>
        <time>2015-04-19T08:43:50Z</time>
      </trkpt>
      <trkpt lat="45.80674" lon="4.80361">
        <ele>312.8</ele>
        <time>2015-04-19T08:43:52Z</time>
      </trkpt>
      <trkpt lat="45.8072" lon="4.80344">
        <ele>314.9</ele>
        <time>2015-04-19T08:44:12Z</time>
      </trkpt>
      <trkpt lat="45.80761" lon="4.80317">
        <ele>316.8</ele>
        <time>2015-04-19T08:44:32Z</time>
      </trkpt>
      <trkpt lat="45.80803" lon="4.80289">
        <ele>318.8</ele>
        <time>2015-04-19T08:44:56Z</time>
      </trkpt>
      <trkpt lat="45.80838" lon="4.80255">
        <ele>321.5</ele>
        <time>2015-04-19T08:45:20Z</time>
      </trkpt>
      <trkpt lat="45.80863" lon="4.80238">
        <ele>322.9</ele>
        <time>2015-04-19T08:45:32Z</time>
      </trkpt>
      <trkpt lat="45.80908" lon="4.80214">
        <ele>325.5</ele>
        <time>2015-04-19T08:45:53Z</time>
      </trkpt>
      <trkpt lat="45.80948" lon="4.80179">
        <ele>328</ele>
        <time>2015-04-19T08:46:12Z</time>
      </trkpt>
      <trkpt lat="45.80985" lon="4.80141">
        <ele>330.1</ele>
        <time>2015-04-19T08:46:31Z</time>
      </trkpt>
      <trkpt lat="45.81025" lon="4.80111">
        <ele>331.8</ele>
        <time>2015-04-19T08:46:51Z</time>
      </trkpt>
      <trkpt lat="45.81067" lon="4.80076">
        <ele>331.1</ele>
        <time>2015-04-19T08:47:11Z</time>
      </trkpt>
      <trkpt lat="45.81098" lon="4.80057">
        <ele>330.5</ele>
        <time>2015-04-19T08:47:22Z</time>
      </trkpt>
      <trkpt lat="45.81116" lon="4.80056">
        <ele>330.3</ele>
        <time>2015-04-19T08:47:26Z</time>
      </trkpt>
      <trkpt lat="45.81142" lon="4.80046">
        <ele>330.2</ele>
        <time>2015-04-19T08:47:31Z</time>
      </trkpt>
      <trkpt lat="45.81192" lon="4.80041">
        <ele>330.3</ele>
        <time>2015-04-19T08:47:41Z</time>
      </trkpt>
      <trkpt lat="45.81216" lon="4.80043">
        <ele>330.5</ele>
        <time>2015-04-19T08:47:46Z</time>
      </trkpt>
      <trkpt lat="45.81258" lon="4.80015">
        <ele>331.9</ele>
        <time>2015-04-19T08:48:02Z</time>
      </trkpt>
      <trkpt lat="45.813" lon="4.79987">
        <ele>335.4</ele>
        <time>2015-04-19T08:48:20Z</time>
      </trkpt>
      <trkpt lat="45.81343" lon="4.79969">
        <ele>336.6</ele>
        <time>2015-04-19T08:48:35Z</time>
      </trkpt>
      <trkpt lat="45.81388" lon="4.79959">
        <ele>338.4</ele>
        <time>2015-04-19T08:48:54Z</time>
      </trkpt>
      <trkpt lat="45.81436" lon="4.7996">
        <ele>340.4</ele>
        <time>2015-04-19T08:49:17Z</time>
      </trkpt>
      <trkpt lat="45.81483" lon="4.79959">
        <ele>340.4</ele>
        <time>2015-04-19T08:49:32Z</time>
      </trkpt>
      <trkpt lat="45.8153" lon="4.79965">
        <ele>340.4</ele>
        <time>2015-04-19T08:49:44Z</time>
      </trkpt>
      <trkpt lat="45.81577" lon="4.79976">
        <ele>340.4</ele>
        <time>2015-04-19T08:49:56Z</time>
      </trkpt>
      <trkpt lat="45.81626" lon="4.79975">
        <ele>340.4</ele>
        <time>2015-04-19T08:50:07Z</time>
      </trkpt>
      <trkpt lat="45.81671" lon="4.7998">
        <ele>340.4</ele>
        <time>2015-04-19T08:50:22Z</time>
      </trkpt>
      <trkpt lat="45.81718" lon="4.79982">
        <ele>343.8</ele>
        <time>2015-04-19T08:50:39Z</time>
      </trkpt>
      <trkpt lat="45.81765" lon="4.79986">
        <ele>346.7</ele>
        <time>2015-04-19T08:50:57Z</time>
      </trkpt>
      <trkpt lat="45.81812" lon="4.80001">
        <ele>348.9</ele>
        <time>2015-04-19T08:51:18Z</time>
      </trkpt>
      <trkpt lat="45.81857" lon="4.80023">
        <ele>348.9</ele>
        <time>2015-04-19T08:51:37Z</time>
      </trkpt>
      <trkpt lat="45.81904" lon="4.8003">
        <ele>348.9</ele>
        <time>2015-04-19T08:51:53Z</time>
      </trkpt>
      <trkpt lat="45.81953" lon="4.80023">
        <ele>349</ele>
        <time>2015-04-19T08:52:06Z</time>
      </trkpt>
      <trkpt lat="45.81998" lon="4.80011">
        <ele>349</ele>
        <time>2015-04-19T08:52:22Z</time>
      </trkpt>
      <trkpt lat="45.82044" lon="4.80013">
        <ele>349</ele>
        <time>2015-04-19T08:52:37Z</time>
      </trkpt>
      <trkpt lat="45.8216" lon="4.79917">
        <ele>363.3</ele>
        <time>2015-04-19T08:53:07Z</time>
      </trkpt>
      <trkpt lat="45.8216" lon="4.79917">
        <ele>363.3</ele>
        <time>2015-04-19T08:55:22Z</time>
      </trkpt>
      <trkpt lat="45.82283" lon="4.79779">
        <ele>382.4</ele>
        <time>2015-04-19T08:55:29Z</time>
      </trkpt>
      <trkpt lat="45.82283" lon="4.79779">
        <ele>382.4</ele>
        <time>2015-04-19T08:57:26Z</time>
      </trkpt>
      <trkpt lat="45.82463" lon="4.79643">
        <ele>405.4</ele>
        <time>2015-04-19T08:57:30Z</time>
      </trkpt>
      <trkpt lat="45.82463" lon="4.79643">
        <ele>405.4</ele>
        <time>2015-04-19T09:02:46Z</time>
      </trkpt>
      <trkpt lat="45.82601" lon="4.79696">
        <ele>410.7</ele>
        <time>2015-04-19T09:02:51Z</time>
      </trkpt>
      <trkpt lat="45.82601" lon="4.79696">
        <ele>410.7</ele>
        <time>2015-04-19T09:05:05Z</time>
      </trkpt>
      <trkpt lat="45.82612" lon="4.79828">
        <ele>401.7</ele>
        <time>2015-04-19T09:05:25Z</time>
      </trkpt>
      <trkpt lat="45.82592" lon="4.7989">
        <ele>401.1</ele>
        <time>2015-04-19T09:05:40Z</time>
      </trkpt>
      <trkpt lat="45.82575" lon="4.79997">
        <ele>399.9</ele>
        <time>2015-04-19T09:05:57Z</time>
      </trkpt>
      <trkpt lat="45.82575" lon="4.79997">
        <ele>399.9</ele>
        <time>2015-04-19T09:07:59Z</time>
      </trkpt>
      <trkpt lat="45.82567" lon="4.80037">
        <ele>399.2</ele>
        <time>2015-04-19T09:08:00Z</time>
      </trkpt>
      <trkpt lat="45.82562" lon="4.80066">
        <ele>399.3</ele>
        <time>2015-04-19T09:08:07Z</time>
      </trkpt>
      <trkpt lat="45.8253" lon="4.80119">
        <ele>396.5</ele>
        <time>2015-04-19T09:08:18Z</time>
      </trkpt>
      <trkpt lat="45.82493" lon="4.80168">
        <ele>392.6</ele>
        <time>2015-04-19T09:08:28Z</time>
      </trkpt>
      <trkpt lat="45.82485" lon="4.80168">
        <ele>392.2</ele>
        <time>2015-04-19T09:08:29Z</time>
      </trkpt>
      <trkpt lat="45.82418" lon="4.80348">
        <ele>395.8</ele>
        <time>2015-04-19T09:08:45Z</time>
      </trkpt>
      <trkpt lat="45.82418" lon="4.80348">
        <ele>395.8</ele>
        <time>2015-04-19T09:10:59Z</time>
      </trkpt>
      <trkpt lat="45.82381" lon="4.80486">
        <ele>399.2</ele>
        <time>2015-04-19T09:11:14Z</time>
      </trkpt>
      <trkpt lat="45.82368" lon="4.80548">
        <ele>391.6</ele>
        <time>2015-04-19T09:11:26Z</time>
      </trkpt>
      <trkpt lat="45.82827" lon="4.80293">
        <ele>440.8</ele>
        <time>2015-04-19T09:11:42Z</time>
      </trkpt>
      <trkpt lat="45.82827" lon="4.80293">
        <ele>440.8</ele>
        <time>2015-04-19T09:35:06Z</time>
      </trkpt>
      <trkpt lat="45.83296" lon="4.79972">
        <ele>497.8</ele>
        <time>2015-04-19T09:35:32Z</time>
      </trkpt>
      <trkpt lat="45.83341" lon="4.79965">
        <ele>498.8</ele>
        <time>2015-04-19T09:35:55Z</time>
      </trkpt>
      <trkpt lat="45.83375" lon="4.79958">
        <ele>499.5</ele>
        <time>2015-04-19T09:36:11Z</time>
      </trkpt>
      <trkpt lat="45.83385" lon="4.79969">
        <ele>500</ele>
        <time>2015-04-19T09:36:21Z</time>
      </trkpt>
      <trkpt lat="45.83428" lon="4.79952">
        <ele>502.2</ele>
        <time>2015-04-19T09:36:44Z</time>
      </trkpt>
      <trkpt lat="45.83474" lon="4.7994">
        <ele>505.1</ele>
        <time>2015-04-19T09:37:08Z</time>
      </trkpt>
      <trkpt lat="45.8352" lon="4.79926">
        <ele>507.9</ele>
        <time>2015-04-19T09:37:36Z</time>
      </trkpt>
      <trkpt lat="45.83567" lon="4.79923">
        <ele>510.4</ele>
        <time>2015-04-19T09:38:01Z</time>
      </trkpt>
      <trkpt lat="45.83613" lon="4.79919">
        <ele>512.7</ele>
        <time>2015-04-19T09:38:21Z</time>
      </trkpt>
      <trkpt lat="45.83659" lon="4.79918">
        <ele>515</ele>
        <time>2015-04-19T09:38:45Z</time>
      </trkpt>
      <trkpt lat="45.83685" lon="4.7991">
        <ele>516</ele>
        <time>2015-04-19T09:38:55Z</time>
      </trkpt>
      <trkpt lat="45.83936" lon="4.7999">
        <ele>539.9</ele>
        <time>2015-04-19T09:39:25Z</time>
      </trkpt>
      <trkpt lat="45.83936" lon="4.7999">
        <ele>539.9</ele>
        <time>2015-04-19T09:48:18Z</time>
      </trkpt>
      <trkpt lat="45.84142" lon="4.80064">
        <ele>561</ele>
        <time>2015-04-19T09:48:26Z</time>
      </trkpt>
      <trkpt lat="45.8416" lon="4.80068">
        <ele>561.1</ele>
        <time>2015-04-19T09:48:30Z</time>
      </trkpt>
      <trkpt lat="45.84171" lon="4.79927">
        <ele>575.6</ele>
        <time>2015-04-19T09:48:45Z</time>
      </trkpt>
      <trkpt lat="45.84171" lon="4.79927">
        <ele>575.6</ele>
        <time>2015-04-19T10:05:18Z</time>
      </trkpt>
      <trkpt lat="45.84184" lon="4.7978">
        <ele>590.1</ele>
        <time>2015-04-19T10:05:28Z</time>
      </trkpt>
      <trkpt lat="45.84166" lon="4.79776">
        <ele>590</ele>
        <time>2015-04-19T10:05:40Z</time>
      </trkpt>
      <trkpt lat="45.84162" lon="4.79781">
        <ele>590</ele>
        <time>2015-04-19T10:05:42Z</time>
      </trkpt>
      <trkpt lat="45.84174" lon="4.79845">
        <ele>587.2</ele>
        <time>2015-04-19T10:05:52Z</time>
      </trkpt>
      <trkpt lat="45.84188" lon="4.79894">
        <ele>583</ele>
        <time>2015-04-19T10:05:58Z</time>
      </trkpt>
      <trkpt lat="45.84225" lon="4.79935">
        <ele>578.3</ele>
        <time>2015-04-19T10:06:06Z</time>
      </trkpt>
      <trkpt lat="45.84233" lon="4.79946">
        <ele>577.1</ele>
        <time>2015-04-19T10:06:08Z</time>
      </trkpt>
      <trkpt lat="45.84231" lon="4.79964">
        <ele>576</ele>
        <time>2015-04-19T10:06:10Z</time>
      </trkpt>
      <trkpt lat="45.84228" lon="4.7997">
        <ele>575.4</ele>
        <time>2015-04-19T10:06:11Z</time>
      </trkpt>
      <trkpt lat="45.84216" lon="4.7998">
        <ele>574.1</ele>
        <time>2015-04-19T10:06:13Z</time>
      </trkpt>
      <trkpt lat="45.84209" lon="4.7998">
        <ele>573.4</ele>
        <time>2015-04-19T10:06:14Z</time>
      </trkpt>
      <trkpt lat="45.84177" lon="4.79997">
        <ele>570.2</ele>
        <time>2015-04-19T10:06:18Z</time>
      </trkpt>
      <trkpt lat="45.84132" lon="4.80033">
        <ele>564.9</ele>
        <time>2015-04-19T10:06:23Z</time>
      </trkpt>
      <trkpt lat="45.84086" lon="4.80061">
        <ele>559.2</ele>
        <time>2015-04-19T10:06:28Z</time>
      </trkpt>
      <trkpt lat="45.84041" lon="4.80079">
        <ele>554.3</ele>
        <time>2015-04-19T10:06:32Z</time>
      </trkpt>
      <trkpt lat="45.8401" lon="4.80075">
        <ele>551.3</ele>
        <time>2015-04-19T10:06:35Z</time>
      </trkpt>
      <trkpt lat="45.83996" lon="4.80061">
        <ele>549.6</ele>
        <time>2015-04-19T10:06:37Z</time>
      </trkpt>
      <trkpt lat="45.83975" lon="4.80018">
        <ele>546.9</ele>
        <time>2015-04-19T10:06:41Z</time>
      </trkpt>
      <trkpt lat="45.83962" lon="4.79964">
        <ele>543.9</ele>
        <time>2015-04-19T10:06:45Z</time>
      </trkpt>
      <trkpt lat="45.83928" lon="4.79915">
        <ele>538.3</ele>
        <time>2015-04-19T10:06:50Z</time>
      </trkpt>
      <trkpt lat="45.8392" lon="4.79904">
        <ele>537.1</ele>
        <time>2015-04-19T10:06:51Z</time>
      </trkpt>
      <trkpt lat="45.8389" lon="4.7989">
        <ele>533.3</ele>
        <time>2015-04-19T10:06:54Z</time>
      </trkpt>
      <trkpt lat="45.83835" lon="4.79894">
        <ele>527.1</ele>
        <time>2015-04-19T10:06:59Z</time>
      </trkpt>
      <trkpt lat="45.83794" lon="4.79908">
        <ele>522.8</ele>
        <time>2015-04-19T10:07:04Z</time>
      </trkpt>
      <trkpt lat="45.83781" lon="4.79908">
        <ele>522.4</ele>
        <time>2015-04-19T10:07:06Z</time>
      </trkpt>
      <trkpt lat="45.83773" lon="4.79898">
        <ele>522</ele>
        <time>2015-04-19T10:07:08Z</time>
      </trkpt>
      <trkpt lat="45.83773" lon="4.79882">
        <ele>521.6</ele>
        <time>2015-04-19T10:07:10Z</time>
      </trkpt>
      <trkpt lat="45.838" lon="4.79834">
        <ele>522.7</ele>
        <time>2015-04-19T10:07:32Z</time>
      </trkpt>
      <trkpt lat="45.83804" lon="4.79834">
        <ele>522.8</ele>
        <time>2015-04-19T10:07:33Z</time>
      </trkpt>
      <trkpt lat="45.83811" lon="4.79819">
        <ele>523.2</ele>
        <time>2015-04-19T10:07:37Z</time>
      </trkpt>
      <trkpt lat="45.83819" lon="4.7981">
        <ele>523.4</ele>
        <time>2015-04-19T10:07:40Z</time>
      </trkpt>
      <trkpt lat="45.83836" lon="4.79749">
        <ele>524.8</ele>
        <time>2015-04-19T10:07:55Z</time>
      </trkpt>
      <trkpt lat="45.83835" lon="4.79742">
        <ele>524.9</ele>
        <time>2015-04-19T10:07:56Z</time>
      </trkpt>
      <trkpt lat="45.83848" lon="4.79682">
        <ele>525</ele>
        <time>2015-04-19T10:08:08Z</time>
      </trkpt>
      <trkpt lat="45.83863" lon="4.79638">
        <ele>524.9</ele>
        <time>2015-04-19T10:08:16Z</time>
      </trkpt>
      <trkpt lat="45.83887" lon="4.79578">
        <ele>524.8</ele>
        <time>2015-04-19T10:08:27Z</time>
      </trkpt>
      <trkpt lat="45.83892" lon="4.79568">
        <ele>524.8</ele>
        <time>2015-04-19T10:08:29Z</time>
      </trkpt>
      <trkpt lat="45.83897" lon="4.79567">
        <ele>524.7</ele>
        <time>2015-04-19T10:08:30Z</time>
      </trkpt>
      <trkpt lat="45.83929" lon="4.79514">
        <ele>524.6</ele>
        <time>2015-04-19T10:08:41Z</time>
      </trkpt>
      <trkpt lat="45.83972" lon="4.79479">
        <ele>524.5</ele>
        <time>2015-04-19T10:08:52Z</time>
      </trkpt>
      <trkpt lat="45.84012" lon="4.79447">
        <ele>524.4</ele>
        <time>2015-04-19T10:09:02Z</time>
      </trkpt>
      <trkpt lat="45.84042" lon="4.79418">
        <ele>524.3</ele>
        <time>2015-04-19T10:09:09Z</time>
      </trkpt>
      <trkpt lat="45.84052" lon="4.79416">
        <ele>524.3</ele>
        <time>2015-04-19T10:09:11Z</time>
      </trkpt>
      <trkpt lat="45.84096" lon="4.79388">
        <ele>523.3</ele>
        <time>2015-04-19T10:09:18Z</time>
      </trkpt>
      <trkpt lat="45.84138" lon="4.79363">
        <ele>520.7</ele>
        <time>2015-04-19T10:09:24Z</time>
      </trkpt>
      <trkpt lat="45.84183" lon="4.79348">
        <ele>519.7</ele>
        <time>2015-04-19T10:09:30Z</time>
      </trkpt>
      <trkpt lat="45.84214" lon="4.79335">
        <ele>520.4</ele>
        <time>2015-04-19T10:09:35Z</time>
      </trkpt>
      <trkpt lat="45.84224" lon="4.79312">
        <ele>520.5</ele>
        <time>2015-04-19T10:09:36Z</time>
      </trkpt>
      <trkpt lat="45.84225" lon="4.79313">
        <ele>520.7</ele>
        <time>2015-04-19T10:09:37Z</time>
      </trkpt>
      <trkpt lat="45.84236" lon="4.79282">
        <ele>523.9</ele>
        <time>2015-04-19T10:09:43Z</time>
      </trkpt>
      <trkpt lat="45.84233" lon="4.79255">
        <ele>525.9</ele>
        <time>2015-04-19T10:09:49Z</time>
      </trkpt>
      <trkpt lat="45.84164" lon="4.7915">
        <ele>532.4</ele>
        <time>2015-04-19T10:10:16Z</time>
      </trkpt>
      <trkpt lat="45.84164" lon="4.7915">
        <ele>532.4</ele>
        <time>2015-04-19T10:11:34Z</time>
      </trkpt>
      <trkpt lat="45.84127" lon="4.79095">
        <ele>535.3</ele>
        <time>2015-04-19T10:11:40Z</time>
      </trkpt>
      <trkpt lat="45.84126" lon="4.7909">
        <ele>535.6</ele>
        <time>2015-04-19T10:11:43Z</time>
      </trkpt>
      <trkpt lat="45.84089" lon="4.79047">
        <ele>538.1</ele>
        <time>2015-04-19T10:12:04Z</time>
      </trkpt>
      <trkpt lat="45.84067" lon="4.78996">
        <ele>544.2</ele>
        <time>2015-04-19T10:12:36Z</time>
      </trkpt>
      <trkpt lat="45.84067" lon="4.78996">
        <ele>544.2</ele>
        <time>2015-04-19T10:12:57Z</time>
      </trkpt>
      <trkpt lat="45.84085" lon="4.78974">
        <ele>547.5</ele>
        <time>2015-04-19T10:13:15Z</time>
      </trkpt>
      <trkpt lat="45.8413" lon="4.78971">
        <ele>550.4</ele>
        <time>2015-04-19T10:13:40Z</time>
      </trkpt>
      <trkpt lat="45.84175" lon="4.78953">
        <ele>553.3</ele>
        <time>2015-04-19T10:14:04Z</time>
      </trkpt>
      <trkpt lat="45.84207" lon="4.78932">
        <ele>555.2</ele>
        <time>2015-04-19T10:14:21Z</time>
      </trkpt>
      <trkpt lat="45.8421" lon="4.78811">
        <ele>555.9</ele>
        <time>2015-04-19T10:14:44Z</time>
      </trkpt>
      <trkpt lat="45.8421" lon="4.78811">
        <ele>555.9</ele>
        <time>2015-04-19T10:16:32Z</time>
      </trkpt>
      <trkpt lat="45.84213" lon="4.78771">
        <ele>555.2</ele>
        <time>2015-04-19T10:16:42Z</time>
      </trkpt>
      <trkpt lat="45.84221" lon="4.78707">
        <ele>555</ele>
        <time>2015-04-19T10:16:57Z</time>
      </trkpt>
      <trkpt lat="45.84235" lon="4.78616">
        <ele>554.4</ele>
        <time>2015-04-19T10:17:13Z</time>
      </trkpt>
      <trkpt lat="45.84235" lon="4.78616">
        <ele>554.4</ele>
        <time>2015-04-19T10:18:14Z</time>
      </trkpt>
      <trkpt lat="45.84248" lon="4.78554">
        <ele>553.9</ele>
        <time>2015-04-19T10:18:22Z</time>
      </trkpt>
      <trkpt lat="45.84249" lon="4.78502">
        <ele>552.1</ele>
        <time>2015-04-19T10:18:32Z</time>
      </trkpt>
      <trkpt lat="45.84246" lon="4.78472">
        <ele>551.4</ele>
        <time>2015-04-19T10:18:34Z</time>
      </trkpt>
      <trkpt lat="45.84226" lon="4.78397">
        <ele>549.3</ele>
        <time>2015-04-19T10:18:40Z</time>
      </trkpt>
      <trkpt lat="45.8421" lon="4.78337">
        <ele>546.9</ele>
        <time>2015-04-19T10:18:47Z</time>
      </trkpt>
      <trkpt lat="45.84209" lon="4.78305">
        <ele>546</ele>
        <time>2015-04-19T10:18:51Z</time>
      </trkpt>
      <trkpt lat="45.84211" lon="4.78305">
        <ele>545.7</ele>
        <time>2015-04-19T10:18:54Z</time>
      </trkpt>
      <trkpt lat="45.84212" lon="4.78301">
        <ele>545.5</ele>
        <time>2015-04-19T10:18:55Z</time>
      </trkpt>
      <trkpt lat="45.84196" lon="4.78291">
        <ele>543.3</ele>
        <time>2015-04-19T10:19:05Z</time>
      </trkpt>
      <trkpt lat="45.84179" lon="4.7834">
        <ele>545.3</ele>
        <time>2015-04-19T10:19:21Z</time>
      </trkpt>
      <trkpt lat="45.84168" lon="4.78356">
        <ele>545.4</ele>
        <time>2015-04-19T10:19:24Z</time>
      </trkpt>
      <trkpt lat="45.84124" lon="4.78374">
        <ele>545.2</ele>
        <time>2015-04-19T10:19:36Z</time>
      </trkpt>
      <trkpt lat="45.84109" lon="4.7838">
        <ele>544.9</ele>
        <time>2015-04-19T10:19:42Z</time>
      </trkpt>
      <trkpt lat="45.84061" lon="4.78366">
        <ele>544.9</ele>
        <time>2015-04-19T10:19:51Z</time>
      </trkpt>
      <trkpt lat="45.84016" lon="4.78366">
        <ele>546.8</ele>
        <time>2015-04-19T10:20:08Z</time>
      </trkpt>
      <trkpt lat="45.83968" lon="4.78376">
        <ele>547.5</ele>
        <time>2015-04-19T10:20:23Z</time>
      </trkpt>
      <trkpt lat="45.83875" lon="4.78377">
        <ele>545.1</ele>
        <time>2015-04-19T10:20:39Z</time>
      </trkpt>
      <trkpt lat="45.83875" lon="4.78377">
        <ele>545.1</ele>
        <time>2015-04-19T10:21:22Z</time>
      </trkpt>
      <trkpt lat="45.83828" lon="4.78372">
        <ele>542.9</ele>
        <time>2015-04-19T10:21:36Z</time>
      </trkpt>
      <trkpt lat="45.83784" lon="4.78391">
        <ele>542.6</ele>
        <time>2015-04-19T10:21:55Z</time>
      </trkpt>
      <trkpt lat="45.83739" lon="4.78397">
        <ele>543.9</ele>
        <time>2015-04-19T10:22:10Z</time>
      </trkpt>
      <trkpt lat="45.83693" lon="4.78389">
        <ele>546.4</ele>
        <time>2015-04-19T10:22:28Z</time>
      </trkpt>
      <trkpt lat="45.83649" lon="4.78409">
        <ele>549.2</ele>
        <time>2015-04-19T10:22:46Z</time>
      </trkpt>
      <trkpt lat="45.83612" lon="4.78448">
        <ele>552.3</ele>
        <time>2015-04-19T10:23:13Z</time>
      </trkpt>
      <trkpt lat="45.83577" lon="4.78492">
        <ele>551</ele>
        <time>2015-04-19T10:23:34Z</time>
      </trkpt>
      <trkpt lat="45.83545" lon="4.78541">
        <ele>548.9</ele>
        <time>2015-04-19T10:23:49Z</time>
      </trkpt>
      <trkpt lat="45.8351" lon="4.78587">
        <ele>544</ele>
        <time>2015-04-19T10:24:00Z</time>
      </trkpt>
      <trkpt lat="45.8347" lon="4.7863">
        <ele>540.5</ele>
        <time>2015-04-19T10:24:09Z</time>
      </trkpt>
      <trkpt lat="45.83429" lon="4.78669">
        <ele>537.8</ele>
        <time>2015-04-19T10:24:15Z</time>
      </trkpt>
      <trkpt lat="45.83393" lon="4.78708">
        <ele>533</ele>
        <time>2015-04-19T10:24:23Z</time>
      </trkpt>
      <trkpt lat="45.83376" lon="4.7872">
        <ele>530.7</ele>
        <time>2015-04-19T10:24:26Z</time>
      </trkpt>
      <trkpt lat="45.83326" lon="4.78731">
        <ele>524.7</ele>
        <time>2015-04-19T10:24:33Z</time>
      </trkpt>
      <trkpt lat="45.83283" lon="4.78752">
        <ele>521.5</ele>
        <time>2015-04-19T10:24:40Z</time>
      </trkpt>
      <trkpt lat="45.8324" lon="4.78787">
        <ele>518.8</ele>
        <time>2015-04-19T10:24:49Z</time>
      </trkpt>
      <trkpt lat="45.83174" lon="4.78876">
        <ele>513.7</ele>
        <time>2015-04-19T10:25:03Z</time>
      </trkpt>
      <trkpt lat="45.83174" lon="4.78876">
        <ele>513.7</ele>
        <time>2015-04-19T10:25:57Z</time>
      </trkpt>
      <trkpt lat="45.83138" lon="4.78931">
        <ele>510.1</ele>
        <time>2015-04-19T10:26:01Z</time>
      </trkpt>
      <trkpt lat="45.83096" lon="4.78963">
        <ele>504.7</ele>
        <time>2015-04-19T10:26:09Z</time>
      </trkpt>
      <trkpt lat="45.83052" lon="4.78992">
        <ele>494.9</ele>
        <time>2015-04-19T10:26:19Z</time>
      </trkpt>
      <trkpt lat="45.83026" lon="4.79005">
        <ele>492.5</ele>
        <time>2015-04-19T10:26:23Z</time>
      </trkpt>
      <trkpt lat="45.83023" lon="4.79004">
        <ele>492</ele>
        <time>2015-04-19T10:26:24Z</time>
      </trkpt>
      <trkpt lat="45.83006" lon="4.78942">
        <ele>488.7</ele>
        <time>2015-04-19T10:26:31Z</time>
      </trkpt>
      <trkpt lat="45.82962" lon="4.78959">
        <ele>481.6</ele>
        <time>2015-04-19T10:26:41Z</time>
      </trkpt>
      <trkpt lat="45.82917" lon="4.78978">
        <ele>475.3</ele>
        <time>2015-04-19T10:26:50Z</time>
      </trkpt>
      <trkpt lat="45.8287" lon="4.79002">
        <ele>469.9</ele>
        <time>2015-04-19T10:26:57Z</time>
      </trkpt>
      <trkpt lat="45.82825" lon="4.79026">
        <ele>464.4</ele>
        <time>2015-04-19T10:27:04Z</time>
      </trkpt>
      <trkpt lat="45.82779" lon="4.79046">
        <ele>459.2</ele>
        <time>2015-04-19T10:27:26Z</time>
      </trkpt>
      <trkpt lat="45.82671" lon="4.79101">
        <ele>446.3</ele>
        <time>2015-04-19T10:27:45Z</time>
      </trkpt>
      <trkpt lat="45.82671" lon="4.79101">
        <ele>446.3</ele>
        <time>2015-04-19T10:28:21Z</time>
      </trkpt>
      <trkpt lat="45.82625" lon="4.79117">
        <ele>441.9</ele>
        <time>2015-04-19T10:28:29Z</time>
      </trkpt>
      <trkpt lat="45.82621" lon="4.79118">
        <ele>441.5</ele>
        <time>2015-04-19T10:28:30Z</time>
      </trkpt>
      <trkpt lat="45.82621" lon="4.79116">
        <ele>441.1</ele>
        <time>2015-04-19T10:28:31Z</time>
      </trkpt>
      <trkpt lat="45.82573" lon="4.79127">
        <ele>438.6</ele>
        <time>2015-04-19T10:28:37Z</time>
      </trkpt>
      <trkpt lat="45.82516" lon="4.79144">
        <ele>435.5</ele>
        <time>2015-04-19T10:28:46Z</time>
      </trkpt>
      <trkpt lat="45.8247" lon="4.79155">
        <ele>432</ele>
        <time>2015-04-19T10:28:53Z</time>
      </trkpt>
      <trkpt lat="45.82426" lon="4.79174">
        <ele>428.9</ele>
        <time>2015-04-19T10:28:59Z</time>
      </trkpt>
      <trkpt lat="45.82381" lon="4.79202">
        <ele>426.6</ele>
        <time>2015-04-19T10:29:06Z</time>
      </trkpt>
      <trkpt lat="45.82389" lon="4.79276">
        <ele>419.2</ele>
        <time>2015-04-19T10:29:18Z</time>
      </trkpt>
      <trkpt lat="45.82401" lon="4.7934">
        <ele>414.5</ele>
        <time>2015-04-19T10:29:23Z</time>
      </trkpt>
      <trkpt lat="45.82412" lon="4.79403">
        <ele>408.8</ele>
        <time>2015-04-19T10:29:28Z</time>
      </trkpt>
      <trkpt lat="45.82417" lon="4.79441">
        <ele>405.6</ele>
        <time>2015-04-19T10:29:32Z</time>
      </trkpt>
      <trkpt lat="45.824" lon="4.79446">
        <ele>403.6</ele>
        <time>2015-04-19T10:29:39Z</time>
      </trkpt>
      <trkpt lat="45.82394" lon="4.7946">
        <ele>403.1</ele>
        <time>2015-04-19T10:29:41Z</time>
      </trkpt>
      <trkpt lat="45.82396" lon="4.79519">
        <ele>400.9</ele>
        <time>2015-04-19T10:29:47Z</time>
      </trkpt>
      <trkpt lat="45.82403" lon="4.79564">
        <ele>398.5</ele>
        <time>2015-04-19T10:29:53Z</time>
      </trkpt>
      <trkpt lat="45.82403" lon="4.79576">
        <ele>398.7</ele>
        <time>2015-04-19T10:29:55Z</time>
      </trkpt>
      <trkpt lat="45.82412" lon="4.79585">
        <ele>399</ele>
        <time>2015-04-19T10:29:57Z</time>
      </trkpt>
      <trkpt lat="45.82409" lon="4.79596">
        <ele>399.2</ele>
        <time>2015-04-19T10:29:59Z</time>
      </trkpt>
      <trkpt lat="45.82384" lon="4.79631">
        <ele>397.9</ele>
        <time>2015-04-19T10:30:01Z</time>
      </trkpt>
      <trkpt lat="45.82384" lon="4.79631">
        <ele>397.9</ele>
        <time>2015-04-19T10:30:31Z</time>
      </trkpt>
      <trkpt lat="45.82364" lon="4.79685">
        <ele>396.2</ele>
        <time>2015-04-19T10:30:35Z</time>
      </trkpt>
      <trkpt lat="45.82322" lon="4.79724">
        <ele>391.3</ele>
        <time>2015-04-19T10:30:43Z</time>
      </trkpt>
      <trkpt lat="45.82293" lon="4.79738">
        <ele>388.1</ele>
        <time>2015-04-19T10:30:49Z</time>
      </trkpt>
      <trkpt lat="45.82274" lon="4.79764">
        <ele>385.5</ele>
        <time>2015-04-19T10:30:53Z</time>
      </trkpt>
      <trkpt lat="45.82245" lon="4.79821">
        <ele>379.2</ele>
        <time>2015-04-19T10:30:59Z</time>
      </trkpt>
      <trkpt lat="45.82198" lon="4.79846">
        <ele>372.4</ele>
        <time>2015-04-19T10:31:04Z</time>
      </trkpt>
      <trkpt lat="45.82164" lon="4.79864">
        <ele>368.7</ele>
        <time>2015-04-19T10:31:08Z</time>
      </trkpt>
      <trkpt lat="45.82133" lon="4.7992">
        <ele>364</ele>
        <time>2015-04-19T10:31:13Z</time>
      </trkpt>
      <trkpt lat="45.82106" lon="4.79977">
        <ele>358</ele>
        <time>2015-04-19T10:31:19Z</time>
      </trkpt>
      <trkpt lat="45.82065" lon="4.80005">
        <ele>351.8</ele>
        <time>2015-04-19T10:31:25Z</time>
      </trkpt>
      <trkpt lat="45.82039" lon="4.80017">
        <ele>346.4</ele>
        <time>2015-04-19T10:31:37Z</time>
      </trkpt>
      <trkpt lat="45.82048" lon="4.80066">
        <ele>344.1</ele>
        <time>2015-04-19T10:31:44Z</time>
      </trkpt>
      <trkpt lat="45.82049" lon="4.80112">
        <ele>342.1</ele>
        <time>2015-04-19T10:31:49Z</time>
      </trkpt>
      <trkpt lat="45.82043" lon="4.80125">
        <ele>340.7</ele>
        <time>2015-04-19T10:31:51Z</time>
      </trkpt>
      <trkpt lat="45.8202" lon="4.80138">
        <ele>338.7</ele>
        <time>2015-04-19T10:31:54Z</time>
      </trkpt>
      <trkpt lat="45.81971" lon="4.80149">
        <ele>335.4</ele>
        <time>2015-04-19T10:31:59Z</time>
      </trkpt>
      <trkpt lat="45.81917" lon="4.80157">
        <ele>331.4</ele>
        <time>2015-04-19T10:32:05Z</time>
      </trkpt>
      <trkpt lat="45.81867" lon="4.80166">
        <ele>327</ele>
        <time>2015-04-19T10:32:11Z</time>
      </trkpt>
      <trkpt lat="45.81814" lon="4.80159">
        <ele>323.6</ele>
        <time>2015-04-19T10:32:16Z</time>
      </trkpt>
      <trkpt lat="45.81783" lon="4.80154">
        <ele>321.3</ele>
        <time>2015-04-19T10:32:19Z</time>
      </trkpt>
      <trkpt lat="45.81773" lon="4.80156">
        <ele>320.6</ele>
        <time>2015-04-19T10:32:20Z</time>
      </trkpt>
      <trkpt lat="45.81728" lon="4.80179">
        <ele>316.5</ele>
        <time>2015-04-19T10:32:25Z</time>
      </trkpt>
      <trkpt lat="45.81673" lon="4.80191">
        <ele>312.2</ele>
        <time>2015-04-19T10:32:30Z</time>
      </trkpt>
      <trkpt lat="45.8163" lon="4.80209">
        <ele>308.8</ele>
        <time>2015-04-19T10:32:34Z</time>
      </trkpt>
      <trkpt lat="45.81584" lon="4.80226">
        <ele>305.4</ele>
        <time>2015-04-19T10:32:39Z</time>
      </trkpt>
      <trkpt lat="45.81537" lon="4.80235">
        <ele>303.1</ele>
        <time>2015-04-19T10:32:44Z</time>
      </trkpt>
      <trkpt lat="45.81483" lon="4.80245">
        <ele>300</ele>
        <time>2015-04-19T10:32:50Z</time>
      </trkpt>
      <trkpt lat="45.81461" lon="4.8026">
        <ele>298.3</ele>
        <time>2015-04-19T10:32:53Z</time>
      </trkpt>
      <trkpt lat="45.81426" lon="4.80307">
        <ele>294.9</ele>
        <time>2015-04-19T10:32:59Z</time>
      </trkpt>
      <trkpt lat="45.81397" lon="4.80343">
        <ele>294.2</ele>
        <time>2015-04-19T10:33:04Z</time>
      </trkpt>
      <trkpt lat="45.81397" lon="4.80345">
        <ele>294</ele>
        <time>2015-04-19T10:33:05Z</time>
      </trkpt>
      <trkpt lat="45.81384" lon="4.80357">
        <ele>293.8</ele>
        <time>2015-04-19T10:33:07Z</time>
      </trkpt>
      <trkpt lat="45.81335" lon="4.80382">
        <ele>292.2</ele>
        <time>2015-04-19T10:33:13Z</time>
      </trkpt>
      <trkpt lat="45.81289" lon="4.8041">
        <ele>289.2</ele>
        <time>2015-04-19T10:33:19Z</time>
      </trkpt>
      <trkpt lat="45.8128" lon="4.80416">
        <ele>288.7</ele>
        <time>2015-04-19T10:33:20Z</time>
      </trkpt>
      <trkpt lat="45.81239" lon="4.80456">
        <ele>285</ele>
        <time>2015-04-19T10:33:25Z</time>
      </trkpt>
      <trkpt lat="45.81194" lon="4.80486">
        <ele>281.5</ele>
        <time>2015-04-19T10:33:30Z</time>
      </trkpt>
      <trkpt lat="45.81145" lon="4.80524">
        <ele>278.1</ele>
        <time>2015-04-19T10:33:35Z</time>
      </trkpt>
      <trkpt lat="45.81127" lon="4.8054">
        <ele>276.8</ele>
        <time>2015-04-19T10:33:37Z</time>
      </trkpt>
      <trkpt lat="45.81077" lon="4.80559">
        <ele>274</ele>
        <time>2015-04-19T10:33:42Z</time>
      </trkpt>
      <trkpt lat="45.81025" lon="4.80571">
        <ele>271.5</ele>
        <time>2015-04-19T10:33:47Z</time>
      </trkpt>
      <trkpt lat="45.80974" lon="4.8059">
        <ele>269.2</ele>
        <time>2015-04-19T10:33:52Z</time>
      </trkpt>
      <trkpt lat="45.80953" lon="4.80598">
        <ele>268.2</ele>
        <time>2015-04-19T10:33:54Z</time>
      </trkpt>
      <trkpt lat="45.80905" lon="4.80609">
        <ele>266.2</ele>
        <time>2015-04-19T10:33:59Z</time>
      </trkpt>
      <trkpt lat="45.80859" lon="4.80635">
        <ele>264.4</ele>
        <time>2015-04-19T10:34:04Z</time>
      </trkpt>
      <trkpt lat="45.80817" lon="4.80679">
        <ele>261.3</ele>
        <time>2015-04-19T10:34:10Z</time>
      </trkpt>
      <trkpt lat="45.80782" lon="4.80719">
        <ele>257.7</ele>
        <time>2015-04-19T10:34:15Z</time>
      </trkpt>
      <trkpt lat="45.80772" lon="4.80741">
        <ele>256.1</ele>
        <time>2015-04-19T10:34:17Z</time>
      </trkpt>
      <trkpt lat="45.80761" lon="4.80784">
        <ele>253.7</ele>
        <time>2015-04-19T10:34:21Z</time>
      </trkpt>
      <trkpt lat="45.80727" lon="4.80795">
        <ele>249.7</ele>
        <time>2015-04-19T10:34:28Z</time>
      </trkpt>
      <trkpt lat="45.80634" lon="4.80851">
        <ele>258.4</ele>
        <time>2015-04-19T10:34:39Z</time>
      </trkpt>
      <trkpt lat="45.80634" lon="4.80851">
        <ele>258.4</ele>
        <time>2015-04-19T10:35:56Z</time>
      </trkpt>
      <trkpt lat="45.80546" lon="4.80927">
        <ele>271</ele>
        <time>2015-04-19T10:36:08Z</time>
      </trkpt>
      <trkpt lat="45.80546" lon="4.80927">
        <ele>271</ele>
        <time>2015-04-19T10:36:58Z</time>
      </trkpt>
      <trkpt lat="45.80504" lon="4.80951">
        <ele>276</ele>
        <time>2015-04-19T10:37:19Z</time>
      </trkpt>
      <trkpt lat="45.80458" lon="4.80943">
        <ele>277.2</ele>
        <time>2015-04-19T10:37:45Z</time>
      </trkpt>
      <trkpt lat="45.80415" lon="4.80926">
        <ele>277.9</ele>
        <time>2015-04-19T10:38:03Z</time>
      </trkpt>
      <trkpt lat="45.80376" lon="4.8089">
        <ele>278.5</ele>
        <time>2015-04-19T10:38:22Z</time>
      </trkpt>
      <trkpt lat="45.80337" lon="4.80854">
        <ele>278</ele>
        <time>2015-04-19T10:38:42Z</time>
      </trkpt>
      <trkpt lat="45.8032" lon="4.80857">
        <ele>277.7</ele>
        <time>2015-04-19T10:38:51Z</time>
      </trkpt>
      <trkpt lat="45.80302" lon="4.80921">
        <ele>277.2</ele>
        <time>2015-04-19T10:39:17Z</time>
      </trkpt>
    </trkseg>
  </trk>
</gpx>